createdAt,value
2018-07-06T00:02:03.148Z,51.93
2018-07-06T00:04:29.109Z,52.63
2018-07-06T00:06:55.071Z,53.31
2018-07-06T00:09:21.028Z,53.21
2018-07-06T00:11:46.996Z,52.95
2018-07-06T00:14:12.928Z,52.62
2018-07-06T00:16:38.888Z,52.24
2018-07-06T00:19:04.807Z,52.69
2018-07-06T00:21:30.725Z,53.89
2018-07-06T00:23:56.664Z,52.96
2018-07-06T00:26:22.603Z,52.33
2018-07-06T00:28:48.559Z,52.94
2018-07-06T00:31:14.492Z,52.75
2018-07-06T00:33:40.440Z,52.47
2018-07-06T00:36:06.436Z,52.83
2018-07-06T00:38:32.496Z,53.60
2018-07-06T00:40:58.437Z,52.17
2018-07-06T00:43:24.407Z,52.88
2018-07-06T00:45:50.363Z,52.69
2018-07-06T00:48:16.288Z,52.41
2018-07-06T00:50:42.217Z,53.37
2018-07-06T00:53:08.146Z,52.43
2018-07-06T00:55:34.072Z,53.47
2018-07-06T00:58:00.016Z,53.82
2018-07-06T01:00:25.988Z,54.12
2018-07-06T01:02:51.934Z,53.35
2018-07-06T01:05:17.911Z,53.49
2018-07-06T01:07:43.875Z,52.92
2018-07-06T01:10:09.888Z,52.99
2018-07-06T01:12:35.793Z,52.81
2018-07-06T01:15:01.759Z,54.22
2018-07-06T01:17:27.706Z,54.02
2018-07-06T01:19:53.662Z,54.87
2018-07-06T01:22:19.608Z,54.16
2018-07-06T01:24:45.541Z,53.51
2018-07-06T01:27:11.513Z,52.95
2018-07-06T01:29:37.465Z,53.84
2018-07-06T01:32:03.400Z,53.05
2018-07-06T01:34:29.320Z,53.43
2018-07-06T01:36:55.262Z,53.71
2018-07-06T01:39:21.207Z,52.91
2018-07-06T01:41:47.170Z,52.25
2018-07-06T01:44:13.116Z,51.51
2018-07-06T01:46:39.074Z,52.19
2018-07-06T01:49:05.019Z,52.02
2018-07-06T01:51:30.958Z,52.76
2018-07-06T01:53:56.888Z,51.45
2018-07-06T01:56:22.896Z,50.38
2018-07-06T01:58:48.833Z,49.68
2018-07-06T02:01:14.797Z,49.97
2018-07-06T02:03:40.745Z,50.12
2018-07-06T02:06:06.682Z,49.07
2018-07-06T02:08:32.625Z,49.60
2018-07-06T02:10:58.583Z,49.18
2018-07-06T02:13:24.548Z,50.06
2018-07-06T02:15:50.484Z,49.48
2018-07-06T02:18:16.408Z,49.93
2018-07-06T02:20:42.475Z,48.77
2018-07-06T02:23:08.431Z,50.22
2018-07-06T02:25:34.388Z,50.34
2018-07-06T02:28:00.341Z,49.15
2018-07-06T02:30:26.304Z,50.04
2018-07-06T02:32:52.234Z,50.95
2018-07-06T02:35:18.186Z,51.62
2018-07-06T02:37:44.125Z,53.36
2018-07-06T02:40:10.091Z,51.38
2018-07-06T02:42:36.045Z,50.85
2018-07-06T02:45:01.977Z,51.46
2018-07-06T02:47:27.916Z,51.27
2018-07-06T02:49:53.910Z,52.02
2018-07-06T02:52:19.892Z,51.71
2018-07-06T02:54:45.825Z,51.75
2018-07-06T02:57:11.788Z,52.17
2018-07-06T02:59:37.758Z,52.78
2018-07-06T03:02:03.707Z,54.14
2018-07-06T03:04:29.651Z,52.92
2018-07-06T03:06:55.607Z,52.62
2018-07-06T03:09:21.545Z,51.63
2018-07-06T03:11:47.568Z,52.02
2018-07-06T03:14:14.776Z,52.65
2018-07-06T03:19:13.498Z,51.89
2018-07-06T03:21:39.509Z,51.84
2018-07-06T03:24:06.614Z,51.45
2018-07-06T03:26:32.580Z,51.13
2018-07-06T03:28:58.527Z,49.38
2018-07-06T03:31:24.466Z,49.50
2018-07-06T03:33:50.404Z,50.22
2018-07-06T03:36:16.342Z,50.08
2018-07-06T03:38:42.318Z,50.96
2018-07-06T03:41:08.279Z,50.47
2018-07-06T03:43:34.249Z,50.50
2018-07-06T03:46:00.242Z,51.01
2018-07-06T03:48:26.183Z,49.39
2018-07-06T03:50:52.148Z,49.01
2018-07-06T03:53:18.133Z,50.89
2018-07-06T03:55:44.076Z,49.51
2018-07-06T03:58:10.029Z,50.79
2018-07-06T04:00:35.977Z,51.27
2018-07-06T04:03:01.921Z,50.65
2018-07-06T04:05:28.984Z,50.17
2018-07-06T04:07:54.946Z,50.32
2018-07-06T04:10:20.892Z,50.28
2018-07-06T04:12:46.835Z,50.84
2018-07-06T04:15:12.775Z,50.00
2018-07-06T04:17:38.730Z,49.70
2018-07-06T04:20:04.684Z,49.07
2018-07-06T04:22:30.648Z,49.52
2018-07-06T04:24:56.629Z,50.58
2018-07-06T04:27:22.601Z,51.42
2018-07-06T04:29:48.555Z,49.90
2018-07-06T04:32:14.510Z,49.89
2018-07-06T04:34:40.482Z,49.86
2018-07-06T04:37:06.406Z,48.59
2018-07-06T04:39:32.343Z,49.28
2018-07-06T04:41:58.321Z,47.54
2018-07-06T04:44:24.273Z,46.02
2018-07-06T04:46:50.219Z,47.15
2018-07-06T04:49:16.205Z,47.07
2018-07-06T04:51:42.161Z,46.57
2018-07-06T04:54:08.119Z,46.73
2018-07-06T04:56:34.055Z,46.41
2018-07-06T04:59:00.005Z,45.47
2018-07-06T05:01:25.962Z,45.50
2018-07-06T05:03:52.028Z,45.86
2018-07-06T05:06:17.964Z,46.03
2018-07-06T05:08:43.939Z,46.76
2018-07-06T05:11:09.881Z,45.78
2018-07-06T05:13:35.830Z,47.52
2018-07-06T05:16:01.772Z,47.75
2018-07-06T05:18:27.714Z,48.15
2018-07-06T05:20:53.663Z,48.50
2018-07-06T05:23:19.636Z,47.15
2018-07-06T05:25:45.565Z,47.84
2018-07-06T05:28:11.515Z,48.42
2018-07-06T05:30:37.475Z,48.00
2018-07-06T05:33:03.440Z,48.71
2018-07-06T05:35:29.372Z,47.78
2018-07-06T05:37:55.346Z,47.32
2018-07-06T05:40:21.308Z,46.64
2018-07-06T05:42:47.251Z,46.30
2018-07-06T05:45:13.189Z,47.16
2018-07-06T05:47:39.140Z,47.22
2018-07-06T05:50:05.092Z,46.35
2018-07-06T05:52:31.060Z,46.78
2018-07-06T05:54:56.995Z,46.90
2018-07-06T05:57:22.943Z,46.15
2018-07-06T05:59:49.787Z,46.04
2018-07-06T06:02:15.765Z,45.31
2018-07-06T06:04:41.774Z,46.33
2018-07-06T06:07:07.738Z,44.57
2018-07-06T06:09:33.698Z,44.95
2018-07-06T06:11:59.673Z,45.87
2018-07-06T06:14:25.653Z,44.49
2018-07-06T06:16:51.626Z,43.16
2018-07-06T06:19:17.821Z,44.17
2018-07-06T06:21:43.884Z,44.23
2018-07-06T06:24:09.857Z,44.53
2018-07-06T06:26:35.828Z,45.23
2018-07-06T06:29:01.805Z,44.96
2018-07-06T06:31:27.767Z,45.45
2018-07-06T06:33:53.757Z,46.13
2018-07-06T06:36:19.720Z,46.09
2018-07-06T06:38:45.671Z,45.46
2018-07-06T06:41:11.636Z,45.74
2018-07-06T06:43:37.618Z,46.46
2018-07-06T06:46:03.659Z,46.34
2018-07-06T06:48:29.641Z,46.25
2018-07-06T06:50:55.600Z,46.66
2018-07-06T06:53:21.543Z,47.35
2018-07-06T06:55:47.501Z,46.22
2018-07-06T06:58:13.477Z,47.23
2018-07-06T07:00:39.433Z,47.86
2018-07-06T07:03:05.414Z,47.29
2018-07-06T07:05:31.349Z,47.42
2018-07-06T07:07:57.304Z,47.49
2018-07-06T07:10:23.243Z,48.67
2018-07-06T07:12:49.202Z,48.10
2018-07-06T07:15:15.154Z,48.23
2018-07-06T07:17:41.120Z,47.91
2018-07-06T07:20:07.098Z,47.38
2018-07-06T07:22:33.081Z,48.25
2018-07-06T07:24:59.020Z,47.94
2018-07-06T07:27:25.000Z,47.89
2018-07-06T07:29:50.937Z,47.56
2018-07-06T07:32:16.925Z,47.12
2018-07-06T07:34:42.882Z,46.99
2018-07-06T07:37:08.824Z,47.28
2018-07-06T07:39:34.783Z,46.23
2018-07-06T07:42:00.884Z,47.08
2018-07-06T07:44:26.849Z,46.47
2018-07-06T07:46:52.801Z,45.43
2018-07-06T07:49:18.757Z,45.63
2018-07-06T07:51:44.708Z,46.54
2018-07-06T07:54:10.641Z,47.01
2018-07-06T07:56:36.593Z,47.06
2018-07-06T07:59:02.544Z,46.33
2018-07-06T08:01:28.546Z,46.88
2018-07-06T08:03:54.490Z,44.50
2018-07-06T08:06:20.455Z,45.24
2018-07-06T08:08:46.403Z,45.75
2018-07-06T08:11:12.338Z,46.59
2018-07-06T08:13:38.313Z,47.64
2018-07-06T08:16:04.258Z,47.09
2018-07-06T08:18:30.209Z,47.05
2018-07-06T08:20:56.140Z,46.94
2018-07-06T08:23:22.106Z,47.01
2018-07-06T08:25:48.061Z,47.15
2018-07-06T08:28:14.005Z,47.40
2018-07-06T08:30:39.970Z,47.31
2018-07-06T08:33:05.936Z,46.98
2018-07-06T08:35:31.923Z,47.01
2018-07-06T08:37:57.881Z,46.31
2018-07-06T08:40:23.893Z,47.58
2018-07-06T08:42:49.837Z,47.03
2018-07-06T08:45:15.797Z,47.66
2018-07-06T08:47:41.726Z,46.16
2018-07-06T08:50:07.721Z,47.25
2018-07-06T08:52:33.665Z,47.82
2018-07-06T08:54:59.636Z,46.99
2018-07-06T08:57:25.704Z,46.44
2018-07-06T08:59:51.692Z,47.23
2018-07-06T09:02:17.756Z,46.76
2018-07-06T09:04:43.752Z,46.64
2018-07-06T09:07:09.741Z,46.64
2018-07-06T09:09:35.693Z,45.56
2018-07-06T09:12:01.637Z,46.38
2018-07-06T09:14:27.604Z,46.02
2018-07-06T09:16:54.610Z,45.79
2018-07-06T09:19:20.585Z,44.94
2018-07-06T09:21:46.508Z,44.81
2018-07-06T09:24:12.479Z,45.49
2018-07-06T09:26:38.482Z,43.95
2018-07-06T09:29:04.428Z,44.96
2018-07-06T09:31:30.391Z,45.27
2018-07-06T09:33:56.405Z,45.51
2018-07-06T09:36:22.387Z,44.69
2018-07-06T09:38:48.404Z,44.55
2018-07-06T09:41:14.360Z,44.76
2018-07-06T09:43:40.318Z,44.74
2018-07-06T09:46:06.270Z,45.16
2018-07-06T09:48:33.041Z,45.21
2018-07-06T09:50:59.121Z,44.54
2018-07-06T09:53:25.061Z,44.81
2018-07-06T09:55:51.045Z,45.60
2018-07-06T09:58:17.047Z,45.22
2018-07-06T10:00:43.069Z,45.99
2018-07-06T10:03:09.038Z,45.68
2018-07-06T10:05:35.042Z,46.19
2018-07-06T10:08:01.016Z,44.52
2018-07-06T10:10:26.985Z,44.63
2018-07-06T10:12:52.936Z,44.97
2018-07-06T10:15:18.870Z,44.66
2018-07-06T10:17:44.808Z,45.35
2018-07-06T10:20:10.903Z,45.13
2018-07-06T10:22:36.929Z,45.18
2018-07-06T10:25:02.906Z,44.83
2018-07-06T10:27:28.935Z,44.04
2018-07-06T10:29:54.931Z,44.96
2018-07-06T10:32:20.917Z,43.92
2018-07-06T10:34:47.105Z,44.01
2018-07-06T10:37:13.178Z,44.82
2018-07-06T10:39:39.223Z,44.96
2018-07-06T10:42:05.150Z,44.27
2018-07-06T10:44:31.101Z,43.86
2018-07-06T10:46:57.097Z,44.65
2018-07-06T10:49:23.060Z,44.63
2018-07-06T10:51:49.073Z,45.51
2018-07-06T10:54:15.212Z,44.25
2018-07-06T10:56:41.243Z,44.11
2018-07-06T10:59:07.308Z,45.33
2018-07-06T11:01:33.256Z,45.04
2018-07-06T11:03:59.238Z,44.65
2018-07-06T11:06:25.890Z,44.69
2018-07-06T11:08:51.858Z,44.28
2018-07-06T11:11:17.845Z,44.42
2018-07-06T11:13:43.804Z,44.84
2018-07-06T11:16:09.770Z,45.52
2018-07-06T11:18:35.812Z,45.05
2018-07-06T11:21:01.826Z,45.46
2018-07-06T11:23:27.800Z,45.11
2018-07-06T11:25:53.826Z,45.58
2018-07-06T11:28:19.806Z,45.30
2018-07-06T11:30:45.768Z,44.58
2018-07-06T11:33:11.748Z,45.48
2018-07-06T11:35:37.704Z,44.59
2018-07-06T11:38:03.740Z,44.96
2018-07-06T11:40:29.667Z,45.03
2018-07-06T11:42:55.628Z,44.46
2018-07-06T11:45:21.630Z,45.02
2018-07-06T11:47:47.591Z,45.03
2018-07-06T11:50:13.666Z,44.45
2018-07-06T11:52:39.604Z,43.89
2018-07-06T11:55:05.578Z,44.80
2018-07-06T11:57:31.531Z,44.13
2018-07-06T11:59:57.522Z,44.28
2018-07-06T12:02:23.513Z,45.20
2018-07-06T12:04:49.526Z,44.60
2018-07-06T12:07:15.505Z,44.80
2018-07-06T12:09:41.482Z,44.97
2018-07-06T12:12:07.464Z,45.39
2018-07-06T12:14:33.417Z,44.48
2018-07-06T12:16:59.411Z,44.68
2018-07-06T12:19:25.356Z,44.45
2018-07-06T12:21:51.736Z,45.12
2018-07-06T12:24:18.880Z,44.70
2018-07-06T12:26:44.840Z,44.60
2018-07-06T12:29:10.838Z,45.11
2018-07-06T12:31:36.791Z,44.63
2018-07-06T12:36:35.106Z,45.36
2018-07-06T12:39:01.109Z,44.51
2018-07-06T12:41:27.085Z,45.72
2018-07-06T12:43:53.027Z,45.20
2018-07-06T12:46:18.972Z,45.98
2018-07-06T12:48:44.944Z,44.47
2018-07-06T12:51:10.916Z,45.17
2018-07-06T12:53:36.874Z,44.22
2018-07-06T12:56:02.833Z,44.72
2018-07-06T12:58:28.847Z,44.75
2018-07-06T13:00:54.824Z,44.73
2018-07-06T13:03:20.770Z,44.80
2018-07-06T13:05:46.705Z,44.37
2018-07-06T13:08:12.669Z,44.32
2018-07-06T13:10:38.632Z,44.07
2018-07-06T13:13:04.794Z,45.35
2018-07-06T13:15:30.736Z,45.35
2018-07-06T13:17:56.695Z,44.73
2018-07-06T13:20:22.630Z,45.70
2018-07-06T13:22:49.618Z,45.69
2018-07-06T13:25:15.584Z,45.30
2018-07-06T13:27:41.581Z,45.83
2018-07-06T13:30:07.535Z,45.37
2018-07-06T13:32:33.512Z,45.59
2018-07-06T13:34:59.820Z,44.87
2018-07-06T13:37:25.776Z,45.22
2018-07-06T13:39:51.727Z,45.89
2018-07-06T13:42:17.686Z,46.38
2018-07-06T13:44:43.625Z,46.62
2018-07-06T13:47:10.110Z,46.68
2018-07-06T13:49:36.139Z,46.63
2018-07-06T13:52:02.088Z,46.42
2018-07-06T13:54:28.099Z,46.65
2018-07-06T13:56:54.058Z,46.07
2018-07-06T13:59:20.129Z,46.29
2018-07-06T14:01:46.032Z,46.37
2018-07-06T14:04:11.984Z,45.55
2018-07-06T14:06:37.964Z,45.79
2018-07-06T14:09:03.923Z,46.17
2018-07-06T14:11:29.909Z,44.92
2018-07-06T14:13:55.848Z,45.82
2018-07-06T14:16:21.864Z,46.12
2018-07-06T14:18:47.879Z,45.39
2018-07-06T14:21:13.881Z,45.83
2018-07-06T14:23:39.917Z,45.89
2018-07-06T14:26:06.969Z,46.20
2018-07-06T14:28:33.003Z,46.72
2018-07-06T14:30:58.974Z,45.75
2018-07-06T14:33:25.040Z,45.50
2018-07-06T14:35:51.089Z,45.58
2018-07-06T14:38:17.227Z,46.10
2018-07-06T14:40:43.304Z,45.85
2018-07-06T14:43:09.324Z,45.71
2018-07-06T14:45:35.348Z,46.18
2018-07-06T14:48:02.390Z,46.12
2018-07-06T14:50:30.472Z,47.08
2018-07-06T14:52:56.510Z,47.33
2018-07-06T14:55:22.533Z,47.25
2018-07-06T14:57:48.549Z,47.91
2018-07-06T15:00:14.554Z,48.11
2018-07-06T15:02:40.583Z,46.96
2018-07-06T15:05:06.613Z,47.71
2018-07-06T15:07:32.704Z,47.31
2018-07-06T15:09:58.788Z,47.95
2018-07-06T15:12:26.879Z,46.61
2018-07-06T15:14:52.885Z,47.73
2018-07-06T15:17:18.889Z,47.80
2018-07-06T15:19:48.009Z,46.02
2018-07-06T15:22:13.995Z,47.19
2018-07-06T15:24:40.950Z,47.19
2018-07-06T15:27:06.944Z,47.80
2018-07-06T15:29:32.983Z,46.81
2018-07-06T15:31:59.023Z,48.06
2018-07-06T15:34:25.065Z,47.52
2018-07-06T15:36:52.084Z,47.39
2018-07-06T15:39:18.092Z,46.76
2018-07-06T15:41:45.062Z,46.11
2018-07-06T15:44:11.109Z,46.54
2018-07-06T15:46:37.116Z,46.44
2018-07-06T15:49:03.141Z,46.53
2018-07-06T15:51:29.153Z,46.64
2018-07-06T15:53:57.113Z,48.04
2018-07-06T15:58:58.295Z,48.05
2018-07-06T16:01:29.756Z,47.05
2018-07-06T16:03:56.792Z,48.11
2018-07-06T16:06:24.798Z,47.37
2018-07-06T16:08:56.001Z,47.45
2018-07-06T16:21:33.801Z,47.00
2018-07-06T16:23:59.813Z,46.45
2018-07-06T16:29:02.093Z,46.78
2018-07-06T16:34:03.034Z,46.44
2018-07-06T16:36:29.064Z,46.53
2018-07-06T16:38:59.887Z,46.77
2018-07-06T16:49:04.192Z,46.66
2018-07-06T16:54:03.992Z,46.13
2018-07-06T16:56:31.678Z,46.18
2018-07-06T16:59:02.105Z,46.34
2018-07-06T17:04:02.118Z,44.92
2018-07-06T17:06:28.140Z,45.52
2018-07-06T17:08:59.096Z,46.20
2018-07-06T17:14:02.116Z,45.12
2018-07-06T17:21:26.124Z,46.06
2018-07-06T17:26:23.390Z,46.38
2018-07-06T17:28:49.394Z,46.68
2018-07-06T17:31:15.436Z,45.98
2018-07-06T17:33:41.429Z,45.74
2018-07-06T17:36:07.484Z,46.40
2018-07-06T17:38:33.493Z,46.40
2018-07-06T17:40:59.512Z,46.77
2018-07-06T17:43:25.530Z,47.10
2018-07-06T17:45:51.593Z,46.32
2018-07-06T17:48:17.589Z,46.02
2018-07-06T17:50:43.613Z,46.30
2018-07-06T17:53:09.656Z,46.52
2018-07-06T17:55:35.647Z,46.53
2018-07-06T17:58:01.688Z,46.62
2018-07-06T18:00:27.717Z,46.26
2018-07-06T18:02:53.733Z,45.91
2018-07-06T18:05:20.784Z,46.28
2018-07-06T18:07:46.846Z,46.97
2018-07-06T18:10:12.881Z,45.86
2018-07-06T18:12:38.856Z,45.32
2018-07-06T18:15:06.874Z,45.74
2018-07-06T18:17:32.892Z,46.21
2018-07-06T18:19:58.904Z,45.70
2018-07-06T18:22:24.990Z,45.78
2018-07-06T18:24:51.049Z,45.76
2018-07-06T18:27:19.962Z,46.39
2018-07-06T18:29:46.102Z,46.19
2018-07-06T18:32:12.203Z,45.45
2018-07-06T18:34:38.186Z,45.42
2018-07-06T18:37:11.648Z,45.74
2018-07-06T18:39:37.833Z,45.60
2018-07-06T18:42:04.016Z,44.43
2018-07-06T18:44:30.150Z,44.29
2018-07-06T18:46:56.235Z,44.83
2018-07-06T18:49:23.265Z,44.77
2018-07-06T18:51:49.262Z,46.18
2018-07-06T18:54:15.309Z,45.59
2018-07-06T18:56:41.364Z,45.43
2018-07-06T18:59:07.365Z,45.52
2018-07-06T19:01:33.370Z,45.67
2018-07-06T19:03:59.416Z,45.49
2018-07-06T19:06:25.502Z,44.58
2018-07-06T19:08:51.575Z,44.45
2018-07-06T19:11:17.592Z,43.93
2018-07-06T19:13:43.625Z,45.63
2018-07-06T19:16:10.641Z,45.73
2018-07-06T19:18:36.915Z,44.97
2018-07-06T19:21:02.892Z,44.54
2018-07-06T19:23:28.948Z,45.23
2018-07-06T19:25:55.070Z,45.04
2018-07-06T19:28:21.166Z,44.81
2018-07-06T19:30:47.295Z,44.32
2018-07-06T19:33:13.334Z,45.44
2018-07-06T19:35:39.435Z,46.11
2018-07-06T19:38:05.556Z,45.55
2018-07-06T19:40:31.501Z,46.49
2018-07-06T19:42:57.546Z,45.06
2018-07-06T19:45:25.601Z,46.05
2018-07-06T19:47:52.673Z,46.24
2018-07-06T19:50:18.678Z,45.31
2018-07-06T19:52:44.664Z,46.60
2018-07-06T19:55:10.728Z,47.54
2018-07-06T19:57:36.742Z,48.39
2018-07-06T20:00:03.814Z,49.00
2018-07-06T20:02:29.815Z,48.24
2018-07-06T20:04:57.760Z,47.89
2018-07-06T20:07:23.727Z,49.10
2018-07-06T20:09:49.667Z,47.68
2018-07-06T20:12:15.655Z,49.43
2018-07-06T20:14:41.654Z,49.88
2018-07-06T20:17:07.628Z,49.69
2018-07-06T20:19:33.583Z,48.62
2018-07-06T20:21:59.783Z,47.58
2018-07-06T20:24:25.800Z,48.73
2018-07-06T20:26:51.765Z,46.90
2018-07-06T20:29:17.743Z,47.91
2018-07-06T20:31:43.719Z,48.77
2018-07-06T20:34:09.674Z,48.92
2018-07-06T20:36:35.688Z,48.02
2018-07-06T20:39:01.591Z,48.60
2018-07-06T20:41:27.549Z,48.35
2018-07-06T20:43:53.508Z,47.40
2018-07-06T20:46:19.453Z,48.03
2018-07-06T20:48:45.532Z,47.97
2018-07-06T20:51:11.577Z,47.01
2018-07-06T20:53:37.555Z,46.48
2018-07-06T20:56:03.536Z,48.00
2018-07-06T20:58:29.498Z,48.30
2018-07-06T21:00:55.479Z,48.02
2018-07-06T21:03:21.450Z,47.99
2018-07-06T21:05:47.425Z,47.99
2018-07-06T21:08:13.446Z,48.66
2018-07-06T21:10:39.498Z,47.36
2018-07-06T21:13:05.420Z,47.26
2018-07-06T21:15:31.382Z,47.19
2018-07-06T21:17:57.356Z,47.73
2018-07-06T21:20:23.391Z,48.09
2018-07-06T21:22:49.392Z,47.21
2018-07-06T21:25:15.369Z,47.08
2018-07-06T21:27:41.357Z,47.37
2018-07-06T21:30:07.333Z,46.68
2018-07-06T21:32:33.273Z,46.99
2018-07-06T21:34:59.217Z,46.82
2018-07-06T21:37:25.157Z,46.92
2018-07-06T21:39:51.169Z,47.08
2018-07-06T21:42:17.232Z,47.95
2018-07-06T21:44:43.212Z,47.51
2018-07-06T21:47:09.168Z,46.90
2018-07-06T21:49:35.160Z,47.08
2018-07-06T21:52:01.118Z,46.36
2018-07-06T21:54:27.109Z,47.48
2018-07-06T21:56:53.057Z,47.29
2018-07-06T21:59:19.018Z,47.18
2018-07-06T22:01:44.973Z,48.10
2018-07-06T22:04:10.933Z,47.56
2018-07-06T22:06:36.907Z,47.06
2018-07-06T22:09:03.529Z,47.46
2018-07-06T22:11:29.489Z,46.54
2018-07-06T22:13:55.468Z,46.31
2018-07-06T22:16:21.398Z,46.45
2018-07-06T22:18:47.421Z,46.91
2018-07-06T22:21:13.381Z,47.36
2018-07-06T22:23:39.354Z,46.84
2018-07-06T22:26:05.320Z,48.16
2018-07-06T22:28:31.344Z,47.03
2018-07-06T22:30:57.277Z,47.48
2018-07-06T22:33:23.233Z,47.53
2018-07-06T22:35:49.183Z,47.30
2018-07-06T22:38:15.124Z,48.17
2018-07-06T22:40:41.115Z,47.94
2018-07-06T22:43:09.162Z,47.47
2018-07-06T22:45:35.141Z,47.20
2018-07-06T22:48:01.100Z,46.31
2018-07-06T22:50:27.045Z,46.75
2018-07-06T22:52:53.000Z,46.08
2018-07-06T22:55:18.965Z,47.12
2018-07-06T22:57:44.912Z,47.23
2018-07-06T23:00:10.846Z,46.51
2018-07-06T23:02:36.791Z,47.11
2018-07-06T23:05:02.752Z,46.34
2018-07-06T23:07:28.705Z,45.61
2018-07-06T23:09:54.697Z,45.67
2018-07-06T23:12:20.634Z,45.23
2018-07-06T23:14:46.600Z,44.27
2018-07-06T23:17:12.556Z,45.07
2018-07-06T23:19:38.497Z,44.91
2018-07-06T23:22:04.425Z,44.83
2018-07-06T23:24:30.396Z,44.61
2018-07-06T23:26:56.356Z,44.92
2018-07-06T23:29:22.312Z,43.98
2018-07-06T23:31:48.249Z,43.30
2018-07-06T23:34:14.183Z,43.47
2018-07-06T23:36:40.152Z,42.59
2018-07-06T23:39:06.112Z,43.26
2018-07-06T23:41:32.068Z,43.06
2018-07-06T23:43:58.035Z,43.16
2018-07-06T23:46:23.995Z,42.59
2018-07-06T23:48:50.009Z,42.45
2018-07-06T23:51:15.939Z,42.68
2018-07-06T23:53:41.872Z,41.32
2018-07-06T23:56:07.808Z,42.76
2018-07-06T23:58:33.768Z,41.99
